Latest Weather Observations for Gosford

IDN60901

Issued at 8:55 pm EDT Thursday 23 October 2014 (issued every 10 minutes, with the page automatically refreshed every 10 minutes)

About weather observations | Map of Sydney area stations | Latest observations for Sydney area | Other Formats
Station Details ID: 061425 Name: GOSFORD AWS Lat: -33.44 Lon: 151.36 Height: 7.0 m
Data from the previous 72 hours. | See also: Recent months at Gosford
Date/Time
EDT
Tmp

°C
App
Tmp
°C
Dew
Point
°C
Rel
Hum
%
Delta-T

°C
Wind Press
QNH
hPa
Press
MSL
hPa
Rain
since
9 am
mm
Dir
 
Spd
km/h
Gust
km/h
Spd
kts
Gust
kts
23/08:30pm 19.3 22.5 18.8 97 0.3 CALM 0 6 0 3 - - 0.0
23/08:00pm 19.5 22.6 18.7 95 0.5 CALM 0 0 0 0 - - 0.0
23/07:30pm 20.1 22.7 19.3 95 0.5 E 4 6 2 3 - - 0.0
23/07:00pm 21.0 23.3 17.6 81 2.1 ESE 2 6 1 3 - - 0.0
23/06:30pm 21.9 23.4 16.6 72 3.2 SE 4 7 2 4 - - 0.0
23/06:00pm 23.0 24.3 17.0 69 3.7 SE 6 13 3 7 - - 0.0
23/05:30pm 24.1 25.8 18.5 71 3.5 SE 7 13 4 7 - - 0.0
23/05:00pm 24.7 26.0 18.4 68 4.0 SE 9 15 5 8 - - 0.0
23/04:30pm 25.8 27.3 19.0 66 4.4 SE 9 15 5 8 - - 0.0
23/04:00pm 26.6 28.1 19.7 66 4.5 ESE 11 17 6 9 - - 0.0
23/03:30pm 26.7 29.1 20.1 67 4.3 E 7 13 4 7 - - 0.0
23/03:00pm 26.6 28.4 19.5 65 4.6 E 9 15 5 8 - - 0.0
23/02:30pm 26.9 28.4 20.5 68 4.2 E 13 19 7 10 - - 0.0
23/02:00pm 27.4 29.3 21.4 70 4.0 ENE 13 19 7 10 - - 0.0
23/01:30pm 27.3 29.0 21.6 71 3.8 E 15 19 8 10 - - 0.0
23/01:00pm 29.5 33.1 22.0 64 5.1 S 6 9 3 5 - - 0.0
23/12:30pm 28.5 30.9 19.7 59 5.7 SSE 6 7 3 4 - - 0.0
23/12:00pm 27.7 30.4 20.3 64 4.9 S 6 9 3 5 - - 0.0
23/11:30am 26.3 28.1 18.2 61 5.1 S 6 9 3 5 - - 0.0
23/11:00am 25.0 26.1 16.7 60 5.1 S 6 7 3 4 - - 0.0
23/10:30am 24.2 25.6 16.5 62 4.7 S 4 6 2 3 - - 0.0
23/10:00am 22.8 24.2 16.4 67 3.9 S 4 6 2 3 - - 0.0
23/09:30am 21.6 23.5 15.7 69 3.5 CALM 0 2 0 1 - - 0.0
23/09:00am 19.5 21.2 15.2 76 2.5 CALM 0 4 0 2 - - 0.2
23/08:30am 17.3 18.8 14.6 84 1.6 CALM 0 0 0 0 - - 0.2
23/08:00am 15.5 16.9 14.4 93 0.6 CALM 0 0 0 0 - - 0.2
23/07:30am 13.9 15.1 13.9 100 0.0 CALM 0 0 0 0 - - 0.2
23/07:00am 12.2 12.9 12.2 100 0.0 CALM 0 0 0 0 - - 0.2
23/06:30am 11.8 12.4 11.8 100 0.0 CALM 0 0 0 0 - - 0.2
23/06:00am 11.8 12.4 11.8 100 0.0 CALM 0 0 0 0 - - 0.2
23/05:30am 12.1 12.8 12.1 100 0.0 CALM 0 0 0 0 - - 0.2
23/05:00am 12.0 12.6 12.0 100 0.0 CALM 0 0 0 0 - - 0.2
23/04:30am 12.5 13.3 12.5 100 0.0 CALM 0 0 0 0 - - 0.2
23/04:00am 12.1 12.7 11.9 99 0.1 CALM 0 0 0 0 - - 0.2
23/03:30am 12.7 13.5 12.7 100 0.0 CALM 0 0 0 0 - - 0.2
23/03:00am 12.8 13.7 12.8 100 0.0 CALM 0 0 0 0 - - 0.2
23/02:30am 13.0 13.9 12.8 99 0.1 CALM 0 0 0 0 - - 0.2
23/02:00am 13.3 14.2 12.8 97 0.3 CALM 0 0 0 0 - - 0.2
23/01:30am 13.8 14.8 13.3 97 0.3 CALM 0 0 0 0 - - 0.2
23/01:00am 14.1 15.2 13.5 96 0.3 CALM 0 0 0 0 - - 0.2
23/12:30am 14.6 15.8 13.8 95 0.4 CALM 0 0 0 0 - - 0.2
23/12:00am 15.1 16.2 13.5 90 0.9 CALM 0 0 0 0 - - 0.2
 
Date/Time
EDT
Tmp

°C
App
Tmp
°C
Dew
Point
°C
Rel
Hum
%
Delta-T

°C
Wind Press
QNH
hPa
Press
MSL
hPa
Rain
since
9 am
mm
Dir
 
Spd
km/h
Gust
km/h
Spd
kts
Gust
kts
22/11:30pm 15.8 16.7 14.0 89 1.0 NE 2 4 1 2 - - 0.2
22/11:00pm 16.1 17.0 14.1 88 1.1 NE 2 6 1 3 - - 0.2
22/10:30pm 16.5 17.4 14.0 85 1.4 ENE 2 6 1 3 - - 0.2
22/10:00pm 16.4 16.9 14.1 86 1.3 ENE 4 7 2 4 - - 0.2
22/09:30pm 16.8 17.7 14.1 84 1.5 ENE 2 4 1 2 - - 0.2
22/09:00pm 17.5 18.1 14.2 81 1.9 NE 4 6 2 3 - - 0.2
22/08:30pm 17.7 17.8 13.8 78 2.2 ENE 6 9 3 5 - - 0.2
22/08:00pm 18.1 17.5 13.6 75 2.6 NE 9 17 5 9 - - 0.2
22/07:30pm 18.2 17.5 13.3 73 2.8 NE 9 15 5 8 - - 0.2
22/07:00pm 18.6 17.1 13.2 71 3.1 NE 13 24 7 13 - - 0.2
22/06:30pm 19.2 17.6 12.9 67 3.5 ENE 13 22 7 12 - - 0.2
22/06:00pm 19.7 17.3 12.7 64 3.9 ENE 17 26 9 14 - - 0.2
22/05:30pm 20.2 18.0 13.2 64 4.0 ENE 17 24 9 13 - - 0.2
22/05:00pm 20.4 18.2 13.4 64 4.0 ENE 17 24 9 13 - - 0.2
22/04:30pm 20.2 17.4 13.2 64 4.0 ENE 20 33 11 18 - - 0.2
22/04:00pm 20.5 17.7 12.7 61 4.4 ENE 19 28 10 15 - - 0.2
22/03:30pm 21.1 18.8 13.0 60 4.6 ENE 17 26 9 14 - - 0.2
22/03:00pm 20.9 18.5 13.8 64 4.1 ENE 19 28 10 15 - - 0.2
22/02:30pm 20.9 18.7 13.4 62 4.3 ENE 17 24 9 13 - - 0.2
22/02:00pm 21.3 19.3 14.0 63 4.2 ENE 17 24 9 13 - - 0.2
22/01:30pm 21.5 20.4 14.2 63 4.3 ENE 13 22 7 12 - - 0.2
22/01:00pm 20.0 18.5 13.2 65 3.9 E 13 22 7 12 - - 0.2
22/12:30pm 20.2 19.3 12.7 62 4.2 NE 9 17 5 9 - - 0.2
22/12:00pm 20.2 20.0 14.6 70 3.3 ENE 9 15 5 8 - - 0.2
22/11:30am 19.9 19.3 13.4 66 3.7 ENE 9 15 5 8 - - 0.2
22/11:00am 19.1 18.2 12.6 66 3.6 NE 9 17 5 9 - - 0.2
22/10:30am 18.1 16.3 12.1 68 3.3 NNE 13 20 7 11 - - 0.2
22/10:00am 18.3 16.6 12.5 69 3.2 NNE 13 22 7 12 - - 0.2
22/09:30am 17.8 17.4 12.5 71 2.9 NNE 6 13 3 7 - - 0.0
22/09:00am 17.3 17.6 12.2 72 2.8 NE 2 6 1 3 - - 0.0
22/08:30am 16.1 16.8 12.1 77 2.2 CALM 0 0 0 0 - - 0.0
22/08:00am 15.1 15.8 12.1 82 1.6 CALM 0 0 0 0 - - 0.0
22/07:30am 14.3 15.0 12.2 87 1.1 CALM 0 4 0 2 - - 0.0
22/07:00am 13.6 14.4 12.5 93 0.6 CALM 0 0 0 0 - - 0.0
22/06:30am 13.3 14.1 12.4 94 0.5 CALM 0 4 0 2 - - 0.0
22/06:00am 13.2 14.0 12.4 95 0.4 CALM 0 0 0 0 - - 0.0
22/05:30am 13.3 13.7 12.4 94 0.5 N 2 4 1 2 - - 0.0
22/05:00am 13.2 14.0 12.6 96 0.3 CALM 0 4 0 2 - - 0.0
22/04:30am 13.1 13.8 12.3 95 0.4 CALM 0 0 0 0 - - 0.0
22/04:00am 13.1 13.8 12.3 95 0.4 CALM 0 0 0 0 - - 0.0
22/03:30am 13.1 13.8 12.3 95 0.4 CALM 0 0 0 0 - - 0.0
22/03:00am 13.2 14.0 12.7 97 0.3 CALM 0 0 0 0 - - 0.0
22/02:30am 13.1 13.4 12.3 95 0.4 N 2 2 1 1 - - 0.0
22/02:00am 13.1 13.9 12.6 97 0.3 CALM 0 0 0 0 - - 0.0
22/01:30am 12.9 12.9 12.3 96 0.3 NNE 4 7 2 4 - - 0.0
22/01:00am 12.4 12.6 11.9 97 0.3 NNE 2 6 1 3 - - 0.0
22/12:30am 12.6 13.1 11.5 93 0.6 CALM 0 0 0 0 - - 0.0
22/12:00am 13.3 13.5 11.9 91 0.7 N 2 7 1 4 - - 0.0
 
Date/Time
EDT
Tmp

°C
App
Tmp
°C
Dew
Point
°C
Rel
Hum
%
Delta-T

°C
Wind Press
QNH
hPa
Press
MSL
hPa
Rain
since
9 am
mm
Dir
 
Spd
km/h
Gust
km/h
Spd
kts
Gust
kts
21/11:30pm 14.2 14.9 12.1 87 1.1 CALM 0 0 0 0 - - 0.0
21/11:00pm 14.8 15.2 11.4 80 1.8 CALM 0 2 0 1 - - 0.0
21/10:30pm 15.2 15.5 10.8 75 2.3 CALM 0 4 0 2 - - 0.0
21/10:00pm 15.3 14.2 10.7 74 2.4 NE 7 13 4 7 - - 0.0
21/09:30pm 15.2 14.3 10.8 75 2.3 ENE 6 7 3 4 - - 0.0
21/09:00pm 15.7 14.3 10.9 73 2.6 ENE 9 15 5 8 - - 0.0
21/08:30pm 16.0 14.9 10.7 71 2.8 E 7 19 4 10 - - 0.0
21/08:00pm 15.9 15.5 11.1 73 2.6 NE 4 6 2 3 - - 0.0
21/07:30pm 15.9 15.4 10.9 72 2.7 ENE 4 11 2 6 - - 0.0
21/07:00pm 16.1 15.6 10.8 71 2.8 NE 4 6 2 3 - - 0.0
21/06:30pm 16.4 15.7 10.0 66 3.4 NE 4 7 2 4 - - 0.0
21/06:00pm 16.5 15.1 9.7 64 3.6 E 7 13 4 7 - - 0.0
21/05:30pm 16.6 15.3 10.0 65 3.5 E 7 13 4 7 - - 0.0
21/05:00pm 16.7 14.7 10.3 66 3.4 E 11 19 6 10 - - 0.0
21/04:30pm 16.9 15.1 11.0 68 3.2 ENE 11 15 6 8 - - 0.0
21/04:00pm 17.1 15.4 9.8 62 3.8 E 9 17 5 9 - - 0.0
21/03:30pm 17.2 14.8 10.1 63 3.8 E 13 19 7 10 - - 0.0
21/03:00pm 17.4 15.3 9.8 61 4.0 ENE 11 20 6 11 - - 0.0
21/02:30pm 17.8 15.5 8.9 56 4.6 E 11 20 6 11 - - 0.0
21/02:00pm 18.1 16.1 8.7 54 4.9 E 9 19 5 10 - - 0.0
21/01:30pm 18.1 16.0 8.4 53 5.0 ENE 9 15 5 8 - - 0.0
21/01:00pm 17.9 16.3 8.7 55 4.8 E 7 11 4 6 - - 0.0
21/12:30pm 17.7 16.1 8.6 55 4.7 ENE 7 17 4 9 - - 0.0
21/12:00pm 17.7 15.7 8.6 55 4.7 E 9 20 5 11 - - 0.0
21/11:30am 17.6 15.7 9.2 58 4.4 ENE 9 15 5 8 - - 0.0
21/11:00am 17.2 15.3 8.9 58 4.3 E 9 17 5 9 - - 0.0
21/10:30am 17.2 15.3 8.9 58 4.3 E 9 13 5 7 - - 0.0
21/10:00am 16.9 15.5 9.6 62 3.8 E 7 15 4 8 - - 0.0
21/09:30am 16.8 15.4 9.7 63 3.7 E 7 13 4 7 - - 0.0
21/09:00am 16.5 15.6 10.8 69 3.0 ENE 6 13 3 7 - - 3.0
21/08:30am 15.6 16.0 12.5 82 1.7 NNW 2 4 1 2 - - 3.0
21/08:00am 15.0 14.9 12.0 82 1.6 NE 4 13 2 7 - - 3.0
21/07:30am 13.9 14.0 12.8 93 0.6 NE 4 6 2 3 - - 3.0
21/07:00am 13.8 14.8 13.2 96 0.3 CALM 0 4 0 2 - - 3.0
21/06:30am 13.5 14.5 13.3 99 0.1 CALM 0 4 0 2 - - 3.0
21/06:00am 13.5 14.2 13.3 99 0.1 N 2 6 1 3 - - 3.0
21/05:30am 13.7 14.9 13.7 100 0.0 CALM 0 0 0 0 - - 3.0
21/05:00am 13.7 14.5 13.7 100 0.0 NNE 2 4 1 2 - - 3.0
21/04:30am 13.7 14.5 13.7 100 0.0 WNW 2 4 1 2 - - 3.0
21/04:00am 13.7 14.1 13.7 100 0.0 NNW 4 6 2 3 - - 3.0
21/03:30am 13.8 14.6 13.8 100 0.0 WNW 2 4 1 2 - - 3.0
21/03:00am 13.8 14.6 13.6 99 0.1 S 2 6 1 3 - - 3.0
21/02:30am 13.8 14.9 13.6 99 0.1 CALM 0 4 0 2 - - 3.0
21/02:00am 13.8 15.0 13.8 100 0.0 CALM 0 4 0 2 - - 2.8
21/01:30am 13.9 14.4 13.9 100 0.0 NNW 4 6 2 3 - - 2.8
21/01:00am 14.2 15.5 14.2 100 0.0 CALM 0 4 0 2 - - 2.6
21/12:30am 14.1 15.4 14.1 100 0.0 CALM 0 0 0 0 - - 2.0
21/12:00am 13.9 14.4 13.9 100 0.0 NW 4 6 2 3 - - 2.0
 
Date/Time
EDT
Tmp

°C
App
Tmp
°C
Dew
Point
°C
Rel
Hum
%
Delta-T

°C
Wind Press
QNH
hPa
Press
MSL
hPa
Rain
since
9 am
mm
Dir
 
Spd
km/h
Gust
km/h
Spd
kts
Gust
kts
20/11:30pm 14.1 14.3 14.1 100 0.0 NNW 6 7 3 4 - - 2.0
20/11:00pm 14.3 14.8 14.0 98 0.2 SW 4 6 2 3 - - 1.8
20/10:30pm 14.3 15.1 13.8 97 0.3 N 2 4 1 2 - - 1.4
20/10:00pm 14.6 15.9 14.0 96 0.3 CALM 0 0 0 0 - - 1.4
20/09:30pm 14.8 15.2 13.7 93 0.6 SE 4 13 2 7 - - 1.2
20/09:00pm 15.3 15.6 13.3 88 1.1 E 4 7 2 4 - - 1.2

Latest Capital City Observations: Canberra | Sydney | Melbourne | Brisbane | Adelaide | Perth | Hobart | Darwin

Other Formats:

Comma delimited format used in spreadsheet applications
http://www.bom.gov.au/fwo/IDN60901/IDN60901.94782.axf

JavaScript Object Notation format (JSON) in row-major order
http://www.bom.gov.au/fwo/IDN60901/IDN60901.94782.json